createdAt,value
2023-11-05T00:00:34.073Z,11.40
2023-11-05T00:03:00.759Z,11.40
2023-11-05T00:05:27.427Z,11.40
2023-11-05T00:07:54.011Z,11.40
2023-11-05T00:10:20.751Z,11.40
2023-11-05T00:12:47.363Z,11.40
2023-11-05T00:15:13.934Z,11.40
2023-11-05T00:17:40.557Z,11.40
2023-11-05T00:20:08.788Z,11.40
2023-11-05T00:22:35.730Z,11.50
2023-11-05T00:25:03.080Z,11.50
2023-11-05T00:27:29.674Z,11.50
2023-11-05T00:29:58.245Z,11.40
2023-11-05T00:32:24.992Z,11.40
2023-11-05T00:34:51.673Z,11.50
2023-11-05T00:37:18.334Z,11.50
2023-11-05T00:39:45.242Z,11.40
2023-11-05T00:42:11.845Z,11.50
2023-11-05T00:44:38.390Z,11.50
2023-11-05T00:47:04.983Z,11.50
2023-11-05T00:49:31.581Z,11.50
2023-11-05T00:51:59.289Z,11.60
2023-11-05T00:54:26.741Z,11.60
2023-11-05T00:56:53.311Z,11.60
2023-11-05T00:59:20.268Z,11.60
2023-11-05T01:01:46.907Z,11.60
2023-11-05T01:04:13.700Z,11.60
2023-11-05T01:06:40.418Z,11.60
2023-11-05T01:09:07.060Z,11.60
2023-11-05T01:11:33.815Z,11.60
2023-11-05T01:14:01.224Z,11.60
2023-11-05T01:16:28.360Z,11.60
2023-11-05T01:18:55.569Z,11.60
2023-11-05T01:21:22.358Z,11.50
2023-11-05T01:23:48.952Z,11.60
2023-11-05T01:26:15.643Z,11.60
2023-11-05T01:28:42.215Z,11.60
2023-11-05T01:31:08.802Z,11.60
2023-11-05T01:33:35.645Z,11.60
2023-11-05T01:36:04.704Z,11.60
2023-11-05T01:38:32.859Z,11.60
2023-11-05T01:40:59.410Z,11.60
2023-11-05T01:43:26.527Z,11.60
2023-11-05T01:45:53.252Z,11.60
2023-11-05T01:48:20.194Z,11.70
2023-11-05T01:50:47.579Z,11.70
2023-11-05T01:53:15.025Z,11.70
2023-11-05T01:55:41.856Z,11.70
2023-11-05T01:58:09.014Z,11.70
2023-11-05T02:00:36.398Z,11.70
2023-11-05T02:03:03.263Z,11.70
2023-11-05T02:05:30.324Z,11.60
2023-11-05T02:07:57.147Z,11.60
2023-11-05T02:10:24.043Z,11.60
2023-11-05T02:13:00.924Z,11.60
2023-11-05T02:15:28.715Z,11.60
2023-11-05T02:17:55.932Z,11.60
2023-11-05T02:20:23.036Z,11.60
2023-11-05T02:22:52.665Z,11.60
2023-11-05T02:25:20.410Z,11.50
2023-11-05T02:27:52.107Z,11.50
2023-11-05T02:30:20.206Z,11.50
2023-11-05T02:32:47.442Z,11.50
2023-11-05T02:35:14.343Z,11.50
2023-11-05T02:37:41.225Z,11.40
2023-11-05T02:40:09.287Z,11.40
2023-11-05T02:42:36.053Z,11.40
2023-11-05T02:45:03.683Z,11.40
2023-11-05T02:47:30.305Z,11.40
2023-11-05T02:49:57.127Z,11.40
2023-11-05T02:52:23.872Z,11.30
2023-11-05T02:54:50.869Z,11.30
2023-11-05T02:57:22.391Z,11.40
2023-11-05T02:59:52.125Z,11.40
2023-11-05T03:02:18.775Z,11.40
2023-11-05T03:04:45.457Z,11.40
2023-11-05T03:07:18.080Z,11.40
2023-11-05T03:09:45.032Z,11.50
2023-11-05T03:12:13.217Z,11.40
2023-11-05T03:14:39.966Z,11.40
2023-11-05T03:17:07.649Z,11.40
2023-11-05T03:19:34.383Z,11.40
2023-11-05T03:22:00.974Z,11.30
2023-11-05T03:24:27.842Z,11.40
2023-11-05T03:26:55.357Z,11.30
2023-11-05T03:29:21.947Z,11.30
2023-11-05T03:31:50.628Z,11.30
2023-11-05T03:34:17.475Z,11.30
2023-11-05T03:36:44.651Z,11.30
2023-11-05T03:39:11.274Z,11.30
2023-11-05T03:41:37.804Z,11.30
2023-11-05T03:44:05.238Z,11.30
2023-11-05T03:46:31.818Z,11.30
2023-11-05T03:48:58.788Z,11.20
2023-11-05T03:51:27.744Z,11.10
2023-11-05T03:53:54.397Z,11.20
2023-11-05T03:56:21.411Z,11.20
2023-11-05T03:58:48.010Z,11.20
2023-11-05T04:01:18.211Z,11.20
2023-11-05T04:03:45.236Z,11.20
2023-11-05T04:06:12.063Z,11.20
2023-11-05T04:08:38.626Z,11.20
2023-11-05T04:11:05.526Z,11.20
2023-11-05T04:13:32.816Z,11.20
2023-11-05T04:16:00.631Z,11.20
2023-11-05T04:18:27.392Z,11.20
2023-11-05T04:20:54.066Z,11.20
2023-11-05T04:23:20.763Z,11.20
2023-11-05T04:25:48.067Z,11.30
2023-11-05T04:28:15.021Z,11.30
2023-11-05T04:30:41.585Z,11.30
2023-11-05T04:33:08.197Z,11.40
2023-11-05T04:35:34.755Z,11.30
2023-11-05T04:38:01.473Z,11.30
2023-11-05T04:40:28.554Z,11.30
2023-11-05T04:42:55.181Z,11.30
2023-11-05T04:45:22.011Z,11.30
2023-11-05T04:47:48.744Z,11.30
2023-11-05T04:50:15.384Z,11.30
2023-11-05T04:52:42.025Z,11.40
2023-11-05T04:55:08.994Z,11.30
2023-11-05T04:57:35.622Z,11.40
2023-11-05T05:00:02.181Z,11.40
2023-11-05T05:02:28.877Z,11.40
2023-11-05T05:04:55.597Z,11.40
2023-11-05T05:07:22.684Z,11.50
2023-11-05T05:09:49.322Z,11.50
2023-11-05T05:12:15.933Z,11.40
2023-11-05T05:14:42.560Z,11.40
2023-11-05T05:17:09.173Z,11.40
2023-11-05T05:19:35.781Z,11.40
2023-11-05T05:22:03.638Z,11.40
2023-11-05T05:24:30.380Z,11.50
2023-11-05T05:26:57.124Z,11.40
2023-11-05T05:29:23.746Z,11.40
2023-11-05T05:31:51.006Z,11.40
2023-11-05T05:34:17.845Z,11.40
2023-11-05T05:36:44.510Z,11.40
2023-11-05T05:39:11.298Z,11.40
2023-11-05T05:41:38.145Z,11.40
2023-11-05T05:44:05.046Z,11.40
2023-11-05T05:46:31.683Z,11.40
2023-11-05T05:48:58.493Z,11.40
2023-11-05T05:51:25.184Z,11.30
2023-11-05T05:53:51.799Z,11.30
2023-11-05T05:56:18.376Z,11.30
2023-11-05T05:58:45.843Z,11.30
2023-11-05T06:01:12.582Z,11.30
2023-11-05T06:03:39.359Z,11.30
2023-11-05T06:06:06.246Z,11.30
2023-11-05T06:08:32.812Z,11.20
2023-11-05T06:10:59.342Z,11.30
2023-11-05T06:13:26.451Z,11.30
2023-11-05T06:15:53.639Z,11.30
2023-11-05T06:18:20.391Z,11.20
2023-11-05T06:20:47.364Z,11.20
2023-11-05T06:23:13.936Z,11.20
2023-11-05T06:25:40.555Z,11.20
2023-11-05T06:28:07.200Z,11.10
2023-11-05T06:30:33.740Z,11.20
2023-11-05T06:33:00.466Z,11.10
2023-11-05T06:35:27.024Z,11.10
2023-11-05T06:37:53.725Z,11.10
2023-11-05T06:40:20.319Z,11.10
2023-11-05T06:42:47.007Z,11.10
2023-11-05T06:45:13.613Z,11.10
2023-11-05T06:47:40.326Z,11.10
2023-11-05T06:50:07.617Z,11.10
2023-11-05T06:52:35.301Z,11.10
2023-11-05T06:55:02.977Z,11.10
2023-11-05T06:57:29.527Z,11.10
2023-11-05T06:59:56.044Z,11.10
2023-11-05T07:02:22.718Z,11.10
2023-11-05T07:04:49.370Z,11.10
2023-11-05T07:07:15.969Z,11.10
2023-11-05T07:09:42.585Z,11.10
2023-11-05T07:12:09.474Z,11.10
2023-11-05T07:14:36.049Z,11.10
2023-11-05T07:17:05.680Z,11.20
2023-11-05T07:19:32.656Z,11.30
2023-11-05T07:21:59.241Z,11.40
2023-11-05T07:24:26.093Z,11.40
2023-11-05T07:26:52.650Z,11.50
2023-11-05T07:29:19.263Z,11.50
2023-11-05T07:31:45.890Z,11.50
2023-11-05T07:34:12.847Z,11.60
2023-11-05T07:36:40.016Z,11.60
2023-11-05T07:39:08.493Z,11.50
2023-11-05T07:41:35.460Z,11.50
2023-11-05T07:44:02.452Z,11.50
2023-11-05T07:46:29.562Z,11.50
2023-11-05T07:48:56.108Z,11.60
2023-11-05T07:51:25.590Z,11.50
2023-11-05T07:53:52.194Z,11.50
2023-11-05T07:56:18.760Z,11.60
2023-11-05T07:58:46.193Z,11.60
2023-11-05T08:01:13.908Z,11.60
2023-11-05T08:03:43.145Z,11.70
2023-11-05T08:06:09.754Z,11.70
2023-11-05T08:08:36.297Z,11.70
2023-11-05T08:11:03.041Z,11.70
2023-11-05T08:13:29.561Z,11.70
2023-11-05T08:15:56.166Z,11.80
2023-11-05T08:18:22.765Z,11.80
2023-11-05T08:20:49.410Z,11.80
2023-11-05T08:23:18.575Z,11.90
2023-11-05T08:25:45.271Z,11.90
2023-11-05T08:28:20.351Z,12.00
2023-11-05T08:30:52.459Z,12.10
2023-11-05T08:33:20.064Z,12.20
2023-11-05T08:35:46.828Z,12.10
2023-11-05T08:38:13.645Z,12.10
2023-11-05T08:40:41.793Z,12.00
2023-11-05T08:43:11.625Z,12.00
2023-11-05T08:45:45.774Z,11.80
2023-11-05T08:48:17.387Z,11.70
2023-11-05T08:50:44.110Z,11.70
2023-11-05T08:53:10.724Z,11.70
2023-11-05T08:55:38.463Z,11.90
2023-11-05T08:58:05.355Z,11.90
2023-11-05T09:00:35.910Z,11.90
2023-11-05T09:03:02.770Z,12.00
2023-11-05T09:05:29.471Z,12.20
2023-11-05T09:07:57.411Z,12.40
2023-11-05T09:10:27.335Z,12.70
2023-11-05T09:12:54.651Z,12.80
2023-11-05T09:15:21.414Z,12.80
2023-11-05T09:17:48.018Z,12.90
2023-11-05T09:20:14.842Z,12.90
2023-11-05T09:22:42.326Z,12.80
2023-11-05T09:25:09.833Z,12.60
2023-11-05T09:27:38.110Z,12.50
2023-11-05T09:30:12.908Z,12.50
2023-11-05T09:32:40.203Z,12.40
2023-11-05T09:35:08.714Z,12.40
2023-11-05T09:37:36.127Z,12.30
2023-11-05T09:40:03.968Z,12.30
2023-11-05T09:42:31.532Z,12.30
2023-11-05T09:45:01.044Z,12.30
2023-11-05T09:47:28.165Z,12.40
2023-11-05T09:49:54.721Z,12.50
2023-11-05T09:52:22.610Z,12.50
2023-11-05T09:54:49.408Z,12.30
2023-11-05T09:57:16.135Z,12.30
2023-11-05T09:59:49.918Z,12.40
2023-11-05T10:02:16.445Z,12.50
2023-11-05T10:04:43.050Z,12.50
2023-11-05T10:07:12.458Z,12.50
2023-11-05T10:09:40.672Z,12.60
2023-11-05T10:12:09.871Z,12.70
2023-11-05T10:14:36.980Z,12.80
2023-11-05T10:17:03.683Z,12.90
2023-11-05T10:19:37.428Z,12.90
2023-11-05T10:22:15.747Z,12.80
2023-11-05T10:24:43.079Z,12.80
2023-11-05T10:27:09.695Z,12.80
2023-11-05T10:29:37.996Z,12.80
2023-11-05T10:32:05.292Z,12.80
2023-11-05T10:34:32.750Z,12.80
2023-11-05T10:36:59.467Z,12.70
2023-11-05T10:39:26.052Z,12.70
2023-11-05T10:41:54.116Z,12.70
2023-11-05T10:44:22.413Z,12.70
2023-11-05T10:46:52.934Z,12.70
2023-11-05T10:49:21.651Z,12.70
2023-11-05T10:51:49.423Z,12.70
2023-11-05T10:54:17.227Z,12.80
2023-11-05T10:56:46.097Z,12.80
2023-11-05T10:59:13.130Z,12.90
2023-11-05T11:01:41.692Z,13.00
2023-11-05T11:04:14.780Z,12.90
2023-11-05T11:06:45.600Z,13.00
2023-11-05T11:09:16.251Z,13.00
2023-11-05T11:11:44.237Z,13.00
2023-11-05T11:14:11.156Z,12.90
2023-11-05T11:16:39.245Z,12.90
2023-11-05T11:19:10.105Z,12.90
2023-11-05T11:21:44.090Z,13.10
2023-11-05T11:24:37.076Z,13.30
2023-11-05T11:27:07.906Z,13.40
2023-11-05T11:29:39.086Z,13.50
2023-11-05T11:32:06.468Z,13.40
2023-11-05T11:34:33.406Z,13.50
2023-11-05T11:37:07.498Z,13.90
2023-11-05T11:39:34.368Z,14.10
2023-11-05T11:42:01.819Z,14.30
2023-11-05T11:44:28.636Z,14.20
2023-11-05T11:46:55.627Z,14.20
2023-11-05T11:49:28.481Z,14.20
2023-11-05T11:51:55.686Z,14.20
2023-11-05T11:54:25.686Z,14.20
2023-11-05T11:56:52.395Z,14.30
2023-11-05T11:59:23.145Z,14.50
2023-11-05T12:01:50.518Z,14.40
2023-11-05T12:04:17.375Z,14.20
2023-11-05T12:06:46.625Z,14.10
2023-11-05T12:09:24.108Z,14.10
2023-11-05T12:11:51.750Z,14.20
2023-11-05T12:14:22.999Z,14.20
2023-11-05T12:16:52.420Z,14.20
2023-11-05T12:19:19.230Z,14.20
2023-11-05T12:21:46.491Z,14.20
2023-11-05T12:24:16.943Z,14.10
2023-11-05T12:26:43.715Z,14.10
2023-11-05T12:29:13.950Z,14.30
2023-11-05T12:31:44.669Z,14.50
2023-11-05T12:34:11.384Z,14.50
2023-11-05T12:36:37.947Z,14.60
2023-11-05T12:39:07.595Z,14.60
2023-11-05T12:41:35.786Z,14.60
2023-11-05T12:44:02.436Z,14.50
2023-11-05T12:46:29.159Z,14.50
2023-11-05T12:48:55.789Z,14.50
2023-11-05T12:51:22.335Z,14.40
2023-11-05T12:53:48.972Z,14.30
2023-11-05T12:56:17.742Z,14.30
2023-11-05T12:58:44.474Z,14.20
2023-11-05T13:01:14.153Z,14.20
2023-11-05T13:03:41.300Z,14.20
2023-11-05T13:06:09.663Z,14.10
2023-11-05T13:08:37.566Z,14.10
2023-11-05T13:11:06.718Z,14.10
2023-11-05T13:13:34.153Z,14.10
2023-11-05T13:16:01.237Z,13.90
2023-11-05T13:18:27.917Z,13.90
2023-11-05T13:20:54.641Z,13.80
2023-11-05T13:23:21.872Z,13.70
2023-11-05T13:25:48.804Z,13.70
2023-11-05T13:28:15.486Z,13.60
2023-11-05T13:30:42.038Z,13.60
2023-11-05T13:33:08.711Z,13.50
2023-11-05T13:35:35.405Z,13.30
2023-11-05T13:40:30.380Z,13.20
2023-11-05T13:42:56.936Z,13.10
2023-11-05T13:45:23.830Z,13.00
2023-11-05T13:47:51.051Z,12.90
2023-11-05T13:50:18.973Z,12.90
2023-11-05T13:52:45.723Z,12.80
2023-11-05T13:55:12.363Z,12.70
2023-11-05T13:57:39.809Z,12.60
2023-11-05T14:00:09.093Z,12.40
2023-11-05T14:02:37.051Z,12.20
2023-11-05T14:05:04.856Z,12.00
2023-11-05T14:07:33.571Z,11.90
2023-11-05T14:10:10.062Z,11.90
2023-11-05T14:12:37.350Z,11.80
2023-11-05T14:15:08.829Z,11.60
2023-11-05T14:17:36.568Z,11.60
2023-11-05T14:20:11.217Z,11.80
2023-11-05T14:22:39.046Z,11.90
2023-11-05T14:25:05.988Z,12.00
2023-11-05T14:27:32.517Z,12.00
2023-11-05T14:29:59.360Z,12.00
2023-11-05T14:32:26.424Z,12.00
2023-11-05T14:34:53.296Z,12.00
2023-11-05T14:37:20.154Z,12.00
2023-11-05T14:39:46.885Z,12.00
2023-11-05T14:42:13.661Z,12.20
2023-11-05T14:44:40.996Z,12.40
2023-11-05T14:47:07.967Z,12.40
2023-11-05T14:49:35.411Z,12.40
2023-11-05T14:52:05.303Z,12.40
2023-11-05T14:54:35.282Z,12.40
2023-11-05T14:57:01.943Z,12.20
2023-11-05T14:59:28.951Z,12.10
2023-11-05T15:01:55.613Z,12.00
2023-11-05T15:04:22.232Z,12.00
2023-11-05T15:06:48.812Z,11.90
2023-11-05T15:09:15.450Z,11.90
2023-11-05T15:11:42.044Z,11.90
2023-11-05T15:14:08.628Z,12.00
2023-11-05T15:16:35.161Z,12.10
2023-11-05T15:19:03.112Z,12.10
2023-11-05T15:21:29.697Z,12.00
2023-11-05T15:23:56.546Z,12.00
2023-11-05T15:26:24.662Z,11.90
2023-11-05T15:28:51.870Z,11.80
2023-11-05T15:31:18.789Z,11.80
2023-11-05T15:33:45.511Z,11.70
2023-11-05T15:36:12.908Z,11.60
2023-11-05T15:38:39.665Z,11.60
2023-11-05T15:41:06.418Z,11.50
2023-11-05T15:43:35.945Z,11.50
2023-11-05T15:46:04.882Z,11.40
2023-11-05T15:48:31.607Z,11.40
2023-11-05T15:50:58.186Z,11.30
2023-11-05T15:53:25.161Z,11.30
2023-11-05T15:55:51.879Z,11.30
2023-11-05T15:58:18.624Z,11.30
2023-11-05T16:00:45.636Z,11.20
2023-11-05T16:03:14.319Z,11.30
2023-11-05T16:05:42.818Z,11.20
2023-11-05T16:08:11.748Z,11.20
2023-11-05T16:10:38.393Z,11.10
2023-11-05T16:13:04.987Z,11.10
2023-11-05T16:15:32.685Z,11.10
2023-11-05T16:17:59.568Z,11.10
2023-11-05T16:20:26.339Z,11.10
2023-11-05T16:22:52.936Z,11.10
2023-11-05T16:25:21.740Z,11.00
2023-11-05T16:27:48.496Z,11.00
2023-11-05T16:30:15.215Z,11.00
2023-11-05T16:32:43.061Z,11.00
2023-11-05T16:35:09.859Z,11.00
2023-11-05T16:37:39.062Z,10.90
2023-11-05T16:40:06.271Z,10.90
2023-11-05T16:42:32.879Z,10.80
2023-11-05T16:45:00.243Z,10.70
2023-11-05T16:47:27.187Z,10.70
2023-11-05T16:49:54.867Z,10.70
2023-11-05T16:52:21.475Z,10.80
2023-11-05T16:54:50.393Z,10.80
2023-11-05T16:57:16.954Z,10.80
2023-11-05T16:59:43.604Z,10.90
2023-11-05T17:02:11.704Z,10.90
2023-11-05T17:04:39.214Z,10.90
2023-11-05T17:07:07.233Z,10.90
2023-11-05T17:09:33.945Z,11.00
2023-11-05T17:12:01.402Z,11.00
2023-11-05T17:14:28.075Z,10.90
2023-11-05T17:16:54.833Z,10.80
2023-11-05T17:19:21.622Z,10.80
2023-11-05T17:21:49.375Z,10.70
2023-11-05T17:24:17.464Z,10.70
2023-11-05T17:26:51.522Z,10.70
2023-11-05T17:29:19.462Z,10.80
2023-11-05T17:31:46.826Z,10.70
2023-11-05T17:34:13.679Z,10.70
2023-11-05T17:36:40.266Z,10.70
2023-11-05T17:39:08.997Z,10.60
2023-11-05T17:41:35.551Z,10.60
2023-11-05T17:44:02.182Z,10.60
2023-11-05T17:46:29.656Z,10.60
2023-11-05T17:48:56.334Z,10.60
2023-11-05T17:51:23.404Z,10.60
2023-11-05T17:53:49.966Z,10.60
2023-11-05T17:56:16.754Z,10.60
2023-11-05T17:58:43.275Z,10.60
2023-11-05T18:01:10.529Z,10.60
2023-11-05T18:03:37.125Z,10.60
2023-11-05T18:06:04.851Z,10.60
2023-11-05T18:08:31.367Z,10.60
2023-11-05T18:10:57.921Z,10.60
2023-11-05T18:13:24.457Z,10.60
2023-11-05T18:15:50.996Z,10.60
2023-11-05T18:18:19.917Z,10.60
2023-11-05T18:20:48.749Z,10.60
2023-11-05T18:23:15.685Z,10.60
2023-11-05T18:25:43.521Z,10.60
2023-11-05T18:28:10.059Z,10.60
2023-11-05T18:30:36.657Z,10.60
2023-11-05T18:33:03.200Z,10.60
2023-11-05T18:35:33.517Z,10.60
2023-11-05T18:38:00.696Z,10.60
2023-11-05T18:40:28.599Z,10.60
2023-11-05T18:42:57.611Z,10.60
2023-11-05T18:45:24.457Z,10.60
2023-11-05T18:47:51.090Z,10.60
2023-11-05T18:50:17.859Z,10.50
2023-11-05T18:52:44.784Z,10.50
2023-11-05T18:55:12.059Z,10.50
2023-11-05T18:57:38.795Z,10.60
2023-11-05T19:00:06.096Z,10.60
2023-11-05T19:02:35.504Z,10.60
2023-11-05T19:05:02.208Z,10.70
2023-11-05T19:07:28.916Z,10.70
2023-11-05T19:09:55.568Z,10.70
2023-11-05T19:12:22.421Z,10.70
2023-11-05T19:14:49.007Z,10.70
2023-11-05T19:17:15.629Z,10.70
2023-11-05T19:19:42.947Z,10.70
2023-11-05T19:22:12.237Z,10.70
2023-11-05T19:24:38.743Z,10.80
2023-11-05T19:27:05.480Z,10.80
2023-11-05T19:29:32.672Z,10.80
2023-11-05T19:31:59.928Z,10.80
2023-11-05T19:34:26.549Z,10.90
2023-11-05T19:36:53.229Z,10.90
2023-11-05T19:39:20.075Z,10.90
2023-11-05T19:41:48.679Z,10.90
2023-11-05T19:44:15.302Z,10.90
2023-11-05T19:46:41.923Z,10.90
2023-11-05T19:49:11.347Z,10.80
2023-11-05T19:51:38.365Z,10.80
2023-11-05T19:54:05.378Z,10.80
2023-11-05T19:56:33.596Z,10.70
2023-11-05T19:59:01.454Z,10.70
2023-11-05T20:01:28.242Z,10.70
2023-11-05T20:03:57.040Z,10.70
2023-11-05T20:06:24.139Z,10.60
2023-11-05T20:08:50.698Z,10.60
2023-11-05T20:11:17.892Z,10.70
2023-11-05T20:13:46.508Z,10.70
2023-11-05T20:16:13.785Z,10.70
2023-11-05T20:18:42.630Z,10.80
2023-11-05T20:21:10.172Z,10.80
2023-11-05T20:23:37.464Z,10.80
2023-11-05T20:26:04.640Z,10.80
2023-11-05T20:28:40.202Z,10.80
2023-11-05T20:31:08.278Z,10.70
2023-11-05T20:33:34.853Z,10.70
2023-11-05T20:36:01.428Z,10.70
2023-11-05T20:38:27.977Z,10.70
2023-11-05T20:40:54.528Z,10.70
2023-11-05T20:43:23.158Z,10.70
2023-11-05T20:45:50.480Z,10.70
2023-11-05T20:48:17.623Z,10.70
2023-11-05T20:50:44.665Z,10.70
2023-11-05T20:53:11.424Z,10.80
2023-11-05T20:55:38.471Z,10.80
2023-11-05T20:58:08.317Z,10.80
2023-11-05T21:00:36.696Z,10.80
2023-11-05T21:03:04.020Z,10.90
2023-11-05T21:05:31.345Z,10.90
2023-11-05T21:07:59.815Z,10.90
2023-11-05T21:10:27.598Z,11.00
2023-11-05T21:12:54.194Z,11.00
2023-11-05T21:15:21.266Z,11.00
2023-11-05T21:17:48.017Z,11.00
2023-11-05T21:20:14.846Z,10.90
2023-11-05T21:22:45.113Z,10.90
2023-11-05T21:25:12.490Z,11.00
2023-11-05T21:27:39.729Z,11.00
2023-11-05T21:30:11.208Z,10.90
2023-11-05T21:32:40.749Z,10.90
2023-11-05T21:35:07.891Z,10.90
2023-11-05T21:37:34.455Z,10.80
2023-11-05T21:40:01.258Z,10.80
2023-11-05T21:42:28.346Z,10.70
2023-11-05T21:44:54.951Z,10.70
2023-11-05T21:47:21.646Z,10.70
2023-11-05T21:49:48.555Z,10.70
2023-11-05T21:52:15.194Z,10.70
2023-11-05T21:54:41.847Z,10.60
2023-11-05T21:57:08.392Z,10.60
2023-11-05T21:59:34.905Z,10.60
2023-11-05T22:02:01.594Z,10.50
2023-11-05T22:04:28.478Z,10.60
2023-11-05T22:06:55.637Z,10.60
2023-11-05T22:09:22.304Z,10.60
2023-11-05T22:11:48.970Z,10.50
2023-11-05T22:14:15.552Z,10.60
2023-11-05T22:16:43.253Z,10.60
2023-11-05T22:19:10.994Z,10.60
2023-11-05T22:21:44.474Z,10.60
2023-11-05T22:24:15.099Z,10.60
2023-11-05T22:26:42.444Z,10.60
2023-11-05T22:29:09.464Z,10.70
2023-11-05T22:31:36.206Z,10.80
2023-11-05T22:34:03.205Z,10.90
2023-11-05T22:36:33.738Z,10.90
2023-11-05T22:39:00.584Z,10.90
2023-11-05T22:41:27.276Z,10.90
2023-11-05T22:43:53.914Z,10.90
2023-11-05T22:46:20.686Z,10.90
2023-11-05T22:48:47.504Z,10.90
2023-11-05T22:51:16.344Z,10.90
2023-11-05T22:53:42.876Z,10.90
2023-11-05T22:56:11.534Z,10.90
2023-11-05T22:58:38.846Z,11.00
2023-11-05T23:01:05.967Z,11.00
2023-11-05T23:03:32.665Z,11.00
2023-11-05T23:05:59.345Z,11.00
2023-11-05T23:08:25.912Z,11.00
2023-11-05T23:10:52.699Z,11.00
2023-11-05T23:13:19.293Z,11.00
2023-11-05T23:15:45.882Z,11.00
2023-11-05T23:18:12.816Z,11.00
2023-11-05T23:20:39.397Z,11.00
2023-11-05T23:23:05.941Z,10.90
2023-11-05T23:25:38.460Z,10.90
2023-11-05T23:28:07.445Z,10.90
2023-11-05T23:30:34.048Z,10.90
2023-11-05T23:33:00.670Z,10.90
2023-11-05T23:35:27.511Z,11.00
2023-11-05T23:37:55.498Z,11.00
2023-11-05T23:40:22.593Z,11.00
2023-11-05T23:42:50.223Z,11.00
2023-11-05T23:45:17.467Z,11.00
2023-11-05T23:47:44.547Z,11.00
2023-11-05T23:50:11.710Z,11.00
2023-11-05T23:52:39.920Z,11.00
2023-11-05T23:55:07.014Z,11.00
2023-11-05T23:57:33.751Z,11.00
